N784SB KSAN-KSNA
Flight info
| Callsign | N784SB |
|---|---|
| Flight time | 0h 39m |
| Altitude | 6000 |
| Route | OCN V23 SLI |
| Aircraft | C208/L-SDFGR/C |
Departure
| Time | 2026-05-05 05:34 |
|---|---|
| Airport | San Diego International Airport (KSAN) |
Arrival
| Time | 2026-05-05 06:14 |
|---|---|
| Airport | John Wayne Orange County International Airport (KSNA) |
| Time | Latitude | Longitude | Altitude | Speed | Heading |
|---|---|---|---|---|---|
| 2026-05-05 04:58 | 32.73440 | -117.17959 | 30 ft | 0 kts | 290° |
| 2026-05-05 05:21 | 32.73442 | -117.17913 | 33 ft | 0 kts | 193° |
| 2026-05-05 05:26 | 32.73435 | -117.17915 | 33 ft | 3 kts | 193° |
| 2026-05-05 05:26 | 32.73397 | -117.17931 | 33 ft | 8 kts | 205° |
| 2026-05-05 05:26 | 32.73338 | -117.17956 | 32 ft | 11 kts | 197° |
| 2026-05-05 05:26 | 32.73277 | -117.17980 | 30 ft | 16 kts | 198° |
| 2026-05-05 05:27 | 32.73207 | -117.17878 | 28 ft | 20 kts | 106° |
| 2026-05-05 05:27 | 32.73173 | -117.17738 | 32 ft | 17 kts | 105° |
| 2026-05-05 05:27 | 32.73111 | -117.17564 | 29 ft | 0 kts | 152° |
| 2026-05-05 05:30 | 32.73086 | -117.17544 | 29 ft | 0 kts | 148° |
| 2026-05-05 05:33 | 32.73046 | -117.17532 | 30 ft | 20 kts | 194° |
| 2026-05-05 05:33 | 32.73026 | -117.17617 | 29 ft | 0 kts | 293° |
| 2026-05-05 05:34 | 32.73097 | -117.17890 | 35 ft | 86 kts | 288° |
| 2026-05-05 05:34 | 32.73318 | -117.18776 | 202 ft | 131 kts | 283° |
| 2026-05-05 05:34 | 32.73597 | -117.19860 | 659 ft | 137 kts | 286° |
| 2026-05-05 05:35 | 32.74024 | -117.20861 | 1241 ft | 136 kts | 299° |
| 2026-05-05 05:35 | 32.74556 | -117.21787 | 1802 ft | 135 kts | 299° |
| 2026-05-05 05:35 | 32.75063 | -117.22709 | 2346 ft | 135 kts | 298° |
| 2026-05-05 05:35 | 32.75569 | -117.23656 | 2904 ft | 135 kts | 298° |
| 2026-05-05 05:36 | 32.76071 | -117.24598 | 3453 ft | 135 kts | 299° |
| 2026-05-05 05:36 | 32.76571 | -117.25541 | 3991 ft | 134 kts | 298° |
| 2026-05-05 05:36 | 32.77065 | -117.26471 | 4532 ft | 132 kts | 300° |
| 2026-05-05 05:36 | 32.77553 | -117.27389 | 5058 ft | 130 kts | 298° |
| 2026-05-05 05:37 | 32.78035 | -117.28302 | 5578 ft | 130 kts | 298° |
| 2026-05-05 05:37 | 32.78519 | -117.29214 | 6098 ft | 130 kts | 298° |
| 2026-05-05 05:37 | 32.79001 | -117.30125 | 6586 ft | 130 kts | 297° |
| 2026-05-05 05:37 | 32.79478 | -117.31025 | 7060 ft | 130 kts | 298° |
| 2026-05-05 05:38 | 32.79981 | -117.31917 | 7538 ft | 131 kts | 304° |
| 2026-05-05 05:38 | 32.80541 | -117.32776 | 7976 ft | 135 kts | 302° |
| 2026-05-05 05:38 | 32.81168 | -117.33751 | 7994 ft | 159 kts | 304° |
| 2026-05-05 05:38 | 32.81870 | -117.34832 | 7997 ft | 170 kts | 304° |
| 2026-05-05 05:39 | 32.82601 | -117.35959 | 7996 ft | 174 kts | 304° |
| 2026-05-05 05:39 | 32.83345 | -117.37111 | 7996 ft | 176 kts | 304° |
| 2026-05-05 05:39 | 32.84078 | -117.38236 | 7987 ft | 162 kts | 304° |
| 2026-05-05 05:39 | 32.84725 | -117.39231 | 7978 ft | 143 kts | 303° |
| 2026-05-05 05:40 | 32.85293 | -117.40108 | 7976 ft | 128 kts | 303° |
| 2026-05-05 05:40 | 32.85856 | -117.41004 | 7995 ft | 149 kts | 302° |
| 2026-05-05 05:40 | 32.86525 | -117.42056 | 7990 ft | 167 kts | 303° |
| 2026-05-05 05:40 | 32.87254 | -117.43181 | 7986 ft | 175 kts | 303° |
| 2026-05-05 05:41 | 32.88002 | -117.44339 | 7987 ft | 178 kts | 304° |
| 2026-05-05 05:41 | 32.88756 | -117.45508 | 7986 ft | 178 kts | 303° |
| 2026-05-05 05:41 | 32.89511 | -117.46684 | 7986 ft | 179 kts | 304° |
| 2026-05-05 05:41 | 32.90272 | -117.47866 | 7981 ft | 180 kts | 304° |
| 2026-05-05 05:42 | 32.91032 | -117.49046 | 7978 ft | 179 kts | 303° |
| 2026-05-05 05:42 | 32.91791 | -117.50227 | 7974 ft | 180 kts | 304° |
| 2026-05-05 05:42 | 32.92541 | -117.51396 | 7972 ft | 180 kts | 304° |
| 2026-05-05 05:42 | 32.93302 | -117.52579 | 7971 ft | 180 kts | 304° |
| 2026-05-05 05:43 | 32.94060 | -117.53760 | 7971 ft | 180 kts | 304° |
| 2026-05-05 05:43 | 32.94819 | -117.54943 | 7971 ft | 179 kts | 303° |
| 2026-05-05 05:43 | 32.95577 | -117.56123 | 7972 ft | 179 kts | 304° |
| 2026-05-05 05:43 | 32.96321 | -117.57279 | 7965 ft | 168 kts | 303° |
| 2026-05-05 05:44 | 32.97019 | -117.58363 | 7968 ft | 164 kts | 303° |
| 2026-05-05 05:44 | 32.97714 | -117.59453 | 7966 ft | 165 kts | 303° |
| 2026-05-05 05:44 | 32.98411 | -117.60541 | 7967 ft | 166 kts | 303° |
| 2026-05-05 05:44 | 32.99110 | -117.61633 | 7967 ft | 166 kts | 303° |
| 2026-05-05 05:45 | 32.99811 | -117.62726 | 7969 ft | 165 kts | 303° |
| 2026-05-05 05:45 | 33.00508 | -117.63815 | 7973 ft | 165 kts | 304° |
| 2026-05-05 05:45 | 33.01207 | -117.64907 | 7970 ft | 166 kts | 303° |
| 2026-05-05 05:45 | 33.01906 | -117.65998 | 7971 ft | 166 kts | 304° |
| 2026-05-05 05:46 | 33.02604 | -117.67090 | 7973 ft | 166 kts | 303° |
| 2026-05-05 05:46 | 33.03296 | -117.68171 | 7973 ft | 166 kts | 303° |
| 2026-05-05 05:46 | 33.03993 | -117.69262 | 7971 ft | 165 kts | 303° |
| 2026-05-05 05:46 | 33.04693 | -117.70355 | 7973 ft | 165 kts | 304° |
| 2026-05-05 05:47 | 33.05389 | -117.71446 | 7967 ft | 165 kts | 304° |
| 2026-05-05 05:47 | 33.06088 | -117.72539 | 7968 ft | 166 kts | 303° |
| 2026-05-05 05:47 | 33.06910 | -117.73520 | 7967 ft | 169 kts | 316° |
| 2026-05-05 05:47 | 33.07807 | -117.74423 | 7968 ft | 169 kts | 315° |
| 2026-05-05 05:48 | 33.08699 | -117.75328 | 7966 ft | 168 kts | 315° |
| 2026-05-05 05:48 | 33.09593 | -117.76237 | 7966 ft | 169 kts | 315° |
| 2026-05-05 05:48 | 33.10474 | -117.77134 | 7966 ft | 169 kts | 315° |
| 2026-05-05 05:48 | 33.11368 | -117.78041 | 7967 ft | 169 kts | 315° |
| 2026-05-05 05:49 | 33.12262 | -117.78952 | 7963 ft | 169 kts | 315° |
| 2026-05-05 05:49 | 33.13155 | -117.79860 | 7965 ft | 169 kts | 315° |
| 2026-05-05 05:49 | 33.14048 | -117.80770 | 7966 ft | 169 kts | 315° |
| 2026-05-05 05:49 | 33.14944 | -117.81681 | 7967 ft | 169 kts | 315° |
| 2026-05-05 05:50 | 33.15840 | -117.82593 | 7967 ft | 169 kts | 316° |
| 2026-05-05 05:50 | 33.16736 | -117.83506 | 7967 ft | 169 kts | 315° |
| 2026-05-05 05:50 | 33.17632 | -117.84418 | 7967 ft | 169 kts | 315° |
| 2026-05-05 05:50 | 33.18525 | -117.85330 | 7965 ft | 169 kts | 315° |
| 2026-05-05 05:51 | 33.19491 | -117.86136 | 7969 ft | 173 kts | 330° |
| 2026-05-05 05:51 | 33.20660 | -117.86533 | 7966 ft | 176 kts | 345° |
| 2026-05-05 05:51 | 33.21863 | -117.86823 | 7966 ft | 176 kts | 345° |
| 2026-05-05 05:51 | 33.23065 | -117.87121 | 7966 ft | 176 kts | 344° |
| 2026-05-05 05:52 | 33.24273 | -117.87420 | 7964 ft | 177 kts | 344° |
| 2026-05-05 05:52 | 33.25464 | -117.87718 | 7965 ft | 177 kts | 345° |
| 2026-05-05 05:52 | 33.26669 | -117.88016 | 7966 ft | 177 kts | 345° |
| 2026-05-05 05:52 | 33.27873 | -117.88316 | 7966 ft | 177 kts | 344° |
| 2026-05-05 05:53 | 33.29079 | -117.88617 | 7967 ft | 177 kts | 344° |
| 2026-05-05 05:53 | 33.30284 | -117.88916 | 7967 ft | 177 kts | 345° |
| 2026-05-05 05:53 | 33.31490 | -117.89217 | 7966 ft | 177 kts | 344° |
| 2026-05-05 05:53 | 33.32696 | -117.89517 | 7966 ft | 177 kts | 345° |
| 2026-05-05 05:54 | 33.33902 | -117.89818 | 7969 ft | 177 kts | 345° |
| 2026-05-05 05:54 | 33.35109 | -117.90118 | 7971 ft | 177 kts | 345° |
| 2026-05-05 05:54 | 33.36313 | -117.90419 | 7972 ft | 177 kts | 345° |
| 2026-05-05 05:54 | 33.37522 | -117.90719 | 7974 ft | 177 kts | 344° |
| 2026-05-05 05:55 | 33.38704 | -117.91043 | 7970 ft | 176 kts | 339° |
| 2026-05-05 05:55 | 33.39875 | -117.91478 | 7972 ft | 176 kts | 340° |
| 2026-05-05 05:55 | 33.41045 | -117.91900 | 7974 ft | 176 kts | 339° |
| 2026-05-05 05:55 | 33.42226 | -117.92326 | 7976 ft | 178 kts | 340° |
| 2026-05-05 05:56 | 33.43413 | -117.92758 | 7978 ft | 178 kts | 339° |
| 2026-05-05 05:56 | 33.44602 | -117.93189 | 7980 ft | 179 kts | 339° |
| 2026-05-05 05:56 | 33.45791 | -117.93621 | 7979 ft | 179 kts | 340° |
| 2026-05-05 05:56 | 33.46983 | -117.94054 | 7971 ft | 179 kts | 339° |
| 2026-05-05 05:57 | 33.48176 | -117.94487 | 7972 ft | 179 kts | 340° |
| 2026-05-05 05:57 | 33.49355 | -117.94916 | 7972 ft | 179 kts | 339° |
| 2026-05-05 05:57 | 33.50561 | -117.95355 | 7971 ft | 179 kts | 340° |
| 2026-05-05 05:57 | 33.51738 | -117.95783 | 7971 ft | 179 kts | 339° |
| 2026-05-05 05:58 | 33.52932 | -117.96217 | 7972 ft | 179 kts | 340° |
| 2026-05-05 05:58 | 33.54123 | -117.96651 | 7972 ft | 179 kts | 339° |
| 2026-05-05 05:58 | 33.55314 | -117.97084 | 7971 ft | 179 kts | 339° |
| 2026-05-05 05:58 | 33.56507 | -117.97519 | 7973 ft | 178 kts | 340° |
| 2026-05-05 05:59 | 33.57693 | -117.97950 | 7972 ft | 178 kts | 340° |
| 2026-05-05 05:59 | 33.58872 | -117.98380 | 7968 ft | 177 kts | 340° |
| 2026-05-05 05:59 | 33.60055 | -117.98811 | 7969 ft | 178 kts | 339° |
| 2026-05-05 05:59 | 33.61246 | -117.99245 | 7969 ft | 179 kts | 340° |
| 2026-05-05 06:00 | 33.62433 | -117.99679 | 7968 ft | 178 kts | 339° |
| 2026-05-05 06:00 | 33.63620 | -118.00111 | 7969 ft | 179 kts | 339° |
| 2026-05-05 06:00 | 33.64811 | -118.00547 | 7970 ft | 179 kts | 339° |
| 2026-05-05 06:00 | 33.66001 | -118.00979 | 7993 ft | 178 kts | 339° |
| 2026-05-05 06:01 | 33.67185 | -118.01413 | 7997 ft | 178 kts | 339° |
| 2026-05-05 06:01 | 33.68370 | -118.01845 | 7998 ft | 178 kts | 339° |
| 2026-05-05 06:01 | 33.69552 | -118.02277 | 7998 ft | 178 kts | 340° |
| 2026-05-05 06:01 | 33.70739 | -118.02711 | 7998 ft | 179 kts | 339° |
| 2026-05-05 06:02 | 33.71932 | -118.03146 | 8001 ft | 179 kts | 340° |
| 2026-05-05 06:02 | 33.73122 | -118.03582 | 8000 ft | 179 kts | 339° |
| 2026-05-05 06:02 | 33.74317 | -118.04019 | 8003 ft | 180 kts | 340° |
| 2026-05-05 06:02 | 33.75514 | -118.04457 | 7983 ft | 180 kts | 339° |
| 2026-05-05 06:03 | 33.76754 | -118.04698 | 7980 ft | 184 kts | 359° |
| 2026-05-05 06:03 | 33.77987 | -118.04346 | 7983 ft | 187 kts | 23° |
| 2026-05-05 06:03 | 33.79038 | -118.03421 | 7981 ft | 189 kts | 48° |
| 2026-05-05 06:03 | 33.79722 | -118.02086 | 7985 ft | 188 kts | 66° |
| 2026-05-05 06:04 | 33.80283 | -118.00666 | 7980 ft | 188 kts | 66° |
| 2026-05-05 06:04 | 33.80854 | -117.99236 | 7983 ft | 187 kts | 66° |
| 2026-05-05 06:04 | 33.81419 | -117.97834 | 8011 ft | 186 kts | 66° |
| 2026-05-05 06:04 | 33.81987 | -117.96426 | 8008 ft | 186 kts | 66° |
| 2026-05-05 06:05 | 33.82549 | -117.95023 | 8007 ft | 187 kts | 66° |
| 2026-05-05 06:05 | 33.83119 | -117.93608 | 7913 ft | 191 kts | 66° |
| 2026-05-05 06:05 | 33.83706 | -117.92141 | 7664 ft | 198 kts | 66° |
| 2026-05-05 06:05 | 33.84303 | -117.90654 | 7404 ft | 200 kts | 66° |
| 2026-05-05 06:06 | 33.84898 | -117.89172 | 7140 ft | 191 kts | 66° |
| 2026-05-05 06:06 | 33.85462 | -117.87762 | 6890 ft | 184 kts | 66° |
| 2026-05-05 06:06 | 33.86011 | -117.86393 | 6651 ft | 180 kts | 66° |
| 2026-05-05 06:06 | 33.86551 | -117.85046 | 6411 ft | 178 kts | 66° |
| 2026-05-05 06:07 | 33.87086 | -117.83712 | 6173 ft | 176 kts | 66° |
| 2026-05-05 06:07 | 33.87616 | -117.82388 | 5938 ft | 175 kts | 66° |
| 2026-05-05 06:07 | 33.88142 | -117.81073 | 5712 ft | 173 kts | 67° |
| 2026-05-05 06:07 | 33.88228 | -117.79676 | 5432 ft | 172 kts | 110° |
| 2026-05-05 06:08 | 33.87535 | -117.78579 | 5073 ft | 169 kts | 152° |
| 2026-05-05 06:08 | 33.86422 | -117.78329 | 4712 ft | 164 kts | 190° |
| 2026-05-05 06:08 | 33.85279 | -117.78506 | 4289 ft | 167 kts | 185° |
| 2026-05-05 06:08 | 33.84106 | -117.78485 | 3854 ft | 169 kts | 179° |
| 2026-05-05 06:09 | 33.82936 | -117.78393 | 3431 ft | 162 kts | 179° |
| 2026-05-05 06:09 | 33.81883 | -117.78301 | 3400 ft | 143 kts | 179° |
| 2026-05-05 06:09 | 33.80959 | -117.78412 | 3400 ft | 132 kts | 201° |
| 2026-05-05 06:09 | 33.80157 | -117.78884 | 3396 ft | 123 kts | 209° |
| 2026-05-05 06:10 | 33.79438 | -117.79328 | 3398 ft | 112 kts | 211° |
| 2026-05-05 06:10 | 33.78753 | -117.79758 | 3294 ft | 115 kts | 210° |
| 2026-05-05 06:10 | 33.77997 | -117.80249 | 3081 ft | 132 kts | 211° |
| 2026-05-05 06:10 | 33.77192 | -117.80822 | 2843 ft | 131 kts | 214° |
| 2026-05-05 06:11 | 33.76431 | -117.81381 | 2565 ft | 128 kts | 212° |
| 2026-05-05 06:11 | 33.75635 | -117.81885 | 2145 ft | 131 kts | 210° |
| 2026-05-05 06:11 | 33.74832 | -117.82418 | 1730 ft | 131 kts | 211° |
| 2026-05-05 06:11 | 33.74310 | -117.82759 | 1539 ft | 127 kts | 209° |
| 2026-05-05 06:12 | 33.73319 | -117.83384 | 1182 ft | 113 kts | 208° |
| 2026-05-05 06:12 | 33.72635 | -117.83787 | 956 ft | 105 kts | 208° |
| 2026-05-05 06:12 | 33.71990 | -117.84157 | 770 ft | 103 kts | 208° |
| 2026-05-05 06:12 | 33.71316 | -117.84532 | 655 ft | 107 kts | 210° |
| 2026-05-05 06:13 | 33.70889 | -117.84797 | 603 ft | 103 kts | 212° |
| 2026-05-05 06:13 | 33.70242 | -117.85210 | 476 ft | 94 kts | 211° |
| 2026-05-05 06:13 | 33.69738 | -117.85520 | 368 ft | 81 kts | 211° |
| 2026-05-05 06:13 | 33.69190 | -117.85876 | 277 ft | 96 kts | 211° |
| 2026-05-05 06:14 | 33.68636 | -117.86215 | 146 ft | 84 kts | 211° |
| 2026-05-05 06:14 | 33.68167 | -117.86509 | 53 ft | 68 kts | 212° |
| 2026-05-05 06:14 | 33.67842 | -117.86716 | 54 ft | 14 kts | 205° |
| 2026-05-05 06:14 | 33.67640 | -117.86840 | 58 ft | 42 kts | 202° |
| 2026-05-05 06:15 | 33.67582 | -117.86962 | 61 ft | 14 kts | 334° |
| 2026-05-05 06:15 | 33.67620 | -117.87033 | 59 ft | 11 kts | 182° |
| 2026-05-05 06:15 | 33.67630 | -117.87083 | 57 ft | 18 kts | 243° |
| 2026-05-05 06:15 | 33.67627 | -117.87177 | 57 ft | 11 kts | 313° |
| 2026-05-05 06:16 | 33.67634 | -117.87187 | 57 ft | 0 kts | 309° |
| 2026-05-05 06:17 | 33.67467 | -117.87114 | 58 ft | 0 kts | 152° |
| 2026-05-05 06:17 | 33.67183 | -117.86716 | 57 ft | 0 kts | 29° |
| 2026-05-05 06:19 | 33.67223 | -117.86694 | 59 ft | 0 kts | 29° |